sensor_id;sensor_type;location;lat;lon;timestamp;temperature;humidity
29237;DHT22;16266;50.866;4.398;2022-08-19T00:01:25;20.00;99.90
29237;DHT22;16266;50.866;4.398;2022-08-19T00:03:51;19.90;99.90
29237;DHT22;16266;50.866;4.398;2022-08-19T00:06:16;19.90;99.90
29237;DHT22;16266;50.866;4.398;2022-08-19T00:08:43;19.80;99.90
29237;DHT22;16266;50.866;4.398;2022-08-19T00:11:09;19.80;99.90
29237;DHT22;16266;50.866;4.398;2022-08-19T00:13:36;19.80;99.90
29237;DHT22;16266;50.866;4.398;2022-08-19T00:16:03;19.80;99.90
29237;DHT22;16266;50.866;4.398;2022-08-19T00:18:31;19.70;99.90
29237;DHT22;16266;50.866;4.398;2022-08-19T00:20:57;19.80;99.90
29237;DHT22;16266;50.866;4.398;2022-08-19T00:23:25;19.70;99.90
29237;DHT22;16266;50.866;4.398;2022-08-19T00:25:50;19.70;99.90
29237;DHT22;16266;50.866;4.398;2022-08-19T00:28:17;19.80;99.90
29237;DHT22;16266;50.866;4.398;2022-08-19T00:30:43;19.80;99.90
29237;DHT22;16266;50.866;4.398;2022-08-19T00:33:09;19.90;99.90
29237;DHT22;16266;50.866;4.398;2022-08-19T00:35:34;19.80;99.90
29237;DHT22;16266;50.866;4.398;2022-08-19T00:38:00;19.80;99.90
29237;DHT22;16266;50.866;4.398;2022-08-19T00:40:26;19.90;99.90
29237;DHT22;16266;50.866;4.398;2022-08-19T00:42:52;19.90;99.90
29237;DHT22;16266;50.866;4.398;2022-08-19T00:45:23;20.00;99.90
29237;DHT22;16266;50.866;4.398;2022-08-19T00:47:49;20.00;99.90
29237;DHT22;16266;50.866;4.398;2022-08-19T00:50:17;20.10;99.90
29237;DHT22;16266;50.866;4.398;2022-08-19T00:52:47;20.30;99.90
29237;DHT22;16266;50.866;4.398;2022-08-19T00:55:20;20.40;99.90
29237;DHT22;16266;50.866;4.398;2022-08-19T00:57:55;20.50;99.90
29237;DHT22;16266;50.866;4.398;2022-08-19T01:00:23;20.60;99.90
29237;DHT22;16266;50.866;4.398;2022-08-19T01:02:49;20.70;99.90
29237;DHT22;16266;50.866;4.398;2022-08-19T01:05:20;20.70;99.90
29237;DHT22;16266;50.866;4.398;2022-08-19T01:07:47;20.70;99.90
29237;DHT22;16266;50.866;4.398;2022-08-19T01:10:17;20.70;99.90
29237;DHT22;16266;50.866;4.398;2022-08-19T01:12:45;20.70;99.90
29237;DHT22;16266;50.866;4.398;2022-08-19T01:15:14;20.70;99.90
29237;DHT22;16266;50.866;4.398;2022-08-19T01:17:42;20.70;99.90
29237;DHT22;16266;50.866;4.398;2022-08-19T01:20:14;20.60;99.90
29237;DHT22;16266;50.866;4.398;2022-08-19T01:25:06;20.30;99.90
29237;DHT22;16266;50.866;4.398;2022-08-19T01:27:39;20.20;99.90
29237;DHT22;16266;50.866;4.398;2022-08-19T01:30:06;20.20;99.90
29237;DHT22;16266;50.866;4.398;2022-08-19T01:32:32;20.00;99.90
29237;DHT22;16266;50.866;4.398;2022-08-19T01:34:57;19.90;99.90
29237;DHT22;16266;50.866;4.398;2022-08-19T01:37:23;19.70;99.90
29237;DHT22;16266;50.866;4.398;2022-08-19T01:39:49;19.60;99.90
29237;DHT22;16266;50.866;4.398;2022-08-19T01:42:15;19.50;99.90
29237;DHT22;16266;50.866;4.398;2022-08-19T01:44:41;19.40;99.90
29237;DHT22;16266;50.866;4.398;2022-08-19T01:47:08;19.30;99.90
29237;DHT22;16266;50.866;4.398;2022-08-19T01:49:37;19.30;99.90
29237;DHT22;16266;50.866;4.398;2022-08-19T01:52:04;19.20;99.90
29237;DHT22;16266;50.866;4.398;2022-08-19T01:54:30;19.20;99.90
29237;DHT22;16266;50.866;4.398;2022-08-19T01:57:09;19.20;99.90
29237;DHT22;16266;50.866;4.398;2022-08-19T01:59:36;19.10;99.90
29237;DHT22;16266;50.866;4.398;2022-08-19T02:02:04;19.10;99.90
29237;DHT22;16266;50.866;4.398;2022-08-19T02:04:32;19.00;99.90
29237;DHT22;16266;50.866;4.398;2022-08-19T02:06:59;19.00;99.90
29237;DHT22;16266;50.866;4.398;2022-08-19T02:09:25;19.00;99.90
29237;DHT22;16266;50.866;4.398;2022-08-19T02:11:50;19.00;99.90
29237;DHT22;16266;50.866;4.398;2022-08-19T02:14:16;18.90;99.90
29237;DHT22;16266;50.866;4.398;2022-08-19T02:16:41;18.90;99.90
29237;DHT22;16266;50.866;4.398;2022-08-19T02:19:07;18.90;99.90
29237;DHT22;16266;50.866;4.398;2022-08-19T02:21:33;18.80;99.90
29237;DHT22;16266;50.866;4.398;2022-08-19T02:23:59;18.80;99.90
29237;DHT22;16266;50.866;4.398;2022-08-19T02:26:25;18.70;99.90
29237;DHT22;16266;50.866;4.398;2022-08-19T02:28:52;18.60;99.90
29237;DHT22;16266;50.866;4.398;2022-08-19T02:31:20;18.50;99.90
29237;DHT22;16266;50.866;4.398;2022-08-19T02:33:47;18.50;99.90
29237;DHT22;16266;50.866;4.398;2022-08-19T02:36:15;18.50;99.90
29237;DHT22;16266;50.866;4.398;2022-08-19T02:38:41;18.50;99.90
29237;DHT22;16266;50.866;4.398;2022-08-19T02:41:18;18.50;99.90
29237;DHT22;16266;50.866;4.398;2022-08-19T02:43:44;18.40;99.90
29237;DHT22;16266;50.866;4.398;2022-08-19T02:46:22;18.40;99.90
29237;DHT22;16266;50.866;4.398;2022-08-19T02:48:50;18.40;99.90
29237;DHT22;16266;50.866;4.398;2022-08-19T02:51:21;18.30;99.90
29237;DHT22;16266;50.866;4.398;2022-08-19T02:53:47;18.40;99.90
29237;DHT22;16266;50.866;4.398;2022-08-19T02:56:13;18.30;99.90
29237;DHT22;16266;50.866;4.398;2022-08-19T02:58:39;18.20;99.90
29237;DHT22;16266;50.866;4.398;2022-08-19T03:01:06;18.20;99.90
29237;DHT22;16266;50.866;4.398;2022-08-19T03:03:32;18.20;99.90
29237;DHT22;16266;50.866;4.398;2022-08-19T03:06:16;18.20;99.90
29237;DHT22;16266;50.866;4.398;2022-08-19T03:08:44;18.30;99.90
29237;DHT22;16266;50.866;4.398;2022-08-19T03:11:20;18.20;99.90
29237;DHT22;16266;50.866;4.398;2022-08-19T03:13:46;18.10;99.90
29237;DHT22;16266;50.866;4.398;2022-08-19T03:16:12;18.10;99.90
29237;DHT22;16266;50.866;4.398;2022-08-19T03:18:38;18.10;99.90
29237;DHT22;16266;50.866;4.398;2022-08-19T03:21:04;18.00;99.90
29237;DHT22;16266;50.866;4.398;2022-08-19T03:23:30;18.00;99.90
29237;DHT22;16266;50.866;4.398;2022-08-19T03:25:56;18.00;99.90
29237;DHT22;16266;50.866;4.398;2022-08-19T03:28:21;18.00;99.90
29237;DHT22;16266;50.866;4.398;2022-08-19T03:31:03;18.10;99.90
29237;DHT22;16266;50.866;4.398;2022-08-19T03:33:30;18.00;99.90
29237;DHT22;16266;50.866;4.398;2022-08-19T03:38:33;17.90;99.90
29237;DHT22;16266;50.866;4.398;2022-08-19T03:41:03;17.80;99.90
29237;DHT22;16266;50.866;4.398;2022-08-19T03:43:28;17.90;99.90
29237;DHT22;16266;50.866;4.398;2022-08-19T03:46:15;17.80;99.90
29237;DHT22;16266;50.866;4.398;2022-08-19T03:48:42;17.80;99.90
29237;DHT22;16266;50.866;4.398;2022-08-19T03:51:37;17.80;99.90
29237;DHT22;16266;50.866;4.398;2022-08-19T03:54:04;17.70;99.90
29237;DHT22;16266;50.866;4.398;2022-08-19T03:56:30;17.70;99.90
29237;DHT22;16266;50.866;4.398;2022-08-19T03:58:58;17.70;99.90
29237;DHT22;16266;50.866;4.398;2022-08-19T04:01:27;17.60;99.90
29237;DHT22;16266;50.866;4.398;2022-08-19T04:03:55;17.50;99.90
29237;DHT22;16266;50.866;4.398;2022-08-19T04:06:24;17.60;99.90
29237;DHT22;16266;50.866;4.398;2022-08-19T04:08:51;17.50;99.90
29237;DHT22;16266;50.866;4.398;2022-08-19T04:11:27;17.50;99.90
29237;DHT22;16266;50.866;4.398;2022-08-19T04:13:55;17.50;99.90
29237;DHT22;16266;50.866;4.398;2022-08-19T04:16:25;17.50;99.90
29237;DHT22;16266;50.866;4.398;2022-08-19T04:18:54;17.40;99.90
29237;DHT22;16266;50.866;4.398;2022-08-19T04:21:23;17.40;99.90
29237;DHT22;16266;50.866;4.398;2022-08-19T04:23:49;17.40;99.90
29237;DHT22;16266;50.866;4.398;2022-08-19T04:26:35;17.50;99.90
29237;DHT22;16266;50.866;4.398;2022-08-19T04:29:04;17.40;99.90
29237;DHT22;16266;50.866;4.398;2022-08-19T04:31:31;17.50;99.90
29237;DHT22;16266;50.866;4.398;2022-08-19T04:33:59;17.40;99.90
29237;DHT22;16266;50.866;4.398;2022-08-19T04:36:28;17.40;99.90
29237;DHT22;16266;50.866;4.398;2022-08-19T04:38:55;17.40;99.90
29237;DHT22;16266;50.866;4.398;2022-08-19T04:41:21;17.40;99.90
29237;DHT22;16266;50.866;4.398;2022-08-19T04:44:06;17.40;99.90
29237;DHT22;16266;50.866;4.398;2022-08-19T04:46:32;17.40;99.90
29237;DHT22;16266;50.866;4.398;2022-08-19T04:48:59;17.40;99.90
29237;DHT22;16266;50.866;4.398;2022-08-19T04:51:25;17.40;99.90
29237;DHT22;16266;50.866;4.398;2022-08-19T04:53:51;17.40;99.90
29237;DHT22;16266;50.866;4.398;2022-08-19T04:56:18;17.40;99.90
29237;DHT22;16266;50.866;4.398;2022-08-19T04:58:47;17.50;99.90
29237;DHT22;16266;50.866;4.398;2022-08-19T05:01:14;17.40;99.90
29237;DHT22;16266;50.866;4.398;2022-08-19T05:03:42;17.40;99.90
29237;DHT22;16266;50.866;4.398;2022-08-19T05:06:11;17.40;99.90
29237;DHT22;16266;50.866;4.398;2022-08-19T05:08:38;17.50;99.90
29237;DHT22;16266;50.866;4.398;2022-08-19T05:11:16;17.50;99.90
29237;DHT22;16266;50.866;4.398;2022-08-19T05:13:43;17.60;99.90
29237;DHT22;16266;50.866;4.398;2022-08-19T05:16:11;17.70;99.90
29237;DHT22;16266;50.866;4.398;2022-08-19T05:18:37;17.90;99.90
29237;DHT22;16266;50.866;4.398;2022-08-19T05:21:21;18.10;99.90
29237;DHT22;16266;50.866;4.398;2022-08-19T05:24:06;18.40;99.90
29237;DHT22;16266;50.866;4.398;2022-08-19T05:26:44;18.70;99.90
29237;DHT22;16266;50.866;4.398;2022-08-19T05:29:15;18.90;99.90
29237;DHT22;16266;50.866;4.398;2022-08-19T05:31:42;19.20;99.90
29237;DHT22;16266;50.866;4.398;2022-08-19T05:34:08;19.60;99.90
29237;DHT22;16266;50.866;4.398;2022-08-19T05:36:40;19.90;99.90
29237;DHT22;16266;50.866;4.398;2022-08-19T05:39:07;20.20;99.90
29237;DHT22;16266;50.866;4.398;2022-08-19T05:41:33;20.40;99.90
29237;DHT22;16266;50.866;4.398;2022-08-19T05:44:03;20.50;99.90
29237;DHT22;16266;50.866;4.398;2022-08-19T05:46:31;20.90;99.90
29237;DHT22;16266;50.866;4.398;2022-08-19T05:48:57;21.30;99.90
29237;DHT22;16266;50.866;4.398;2022-08-19T05:51:24;21.50;99.90
29237;DHT22;16266;50.866;4.398;2022-08-19T05:53:50;21.60;99.90
29237;DHT22;16266;50.866;4.398;2022-08-19T05:56:17;21.50;99.90
29237;DHT22;16266;50.866;4.398;2022-08-19T05:58:44;21.60;99.90
29237;DHT22;16266;50.866;4.398;2022-08-19T06:01:13;21.70;99.90
29237;DHT22;16266;50.866;4.398;2022-08-19T06:03:40;21.70;99.90
29237;DHT22;16266;50.866;4.398;2022-08-19T06:06:07;21.70;99.90
29237;DHT22;16266;50.866;4.398;2022-08-19T06:08:35;21.60;99.90
29237;DHT22;16266;50.866;4.398;2022-08-19T06:13:47;21.70;99.90
29237;DHT22;16266;50.866;4.398;2022-08-19T06:16:17;21.90;99.90
29237;DHT22;16266;50.866;4.398;2022-08-19T06:18:50;22.30;99.90
29237;DHT22;16266;50.866;4.398;2022-08-19T06:21:20;23.20;99.90
29237;DHT22;16266;50.866;4.398;2022-08-19T06:23:46;23.30;99.90
29237;DHT22;16266;50.866;4.398;2022-08-19T06:26:13;23.20;99.90
29237;DHT22;16266;50.866;4.398;2022-08-19T06:28:39;23.00;99.90
29237;DHT22;16266;50.866;4.398;2022-08-19T06:31:13;22.80;99.90
29237;DHT22;16266;50.866;4.398;2022-08-19T06:33:40;22.80;99.90
29237;DHT22;16266;50.866;4.398;2022-08-19T06:36:07;22.90;99.90
29237;DHT22;16266;50.866;4.398;2022-08-19T06:38:32;23.30;99.90
29237;DHT22;16266;50.866;4.398;2022-08-19T06:41:04;23.80;99.90
29237;DHT22;16266;50.866;4.398;2022-08-19T06:43:30;23.90;99.90
29237;DHT22;16266;50.866;4.398;2022-08-19T06:45:56;24.10;99.90
29237;DHT22;16266;50.866;4.398;2022-08-19T06:48:21;24.20;99.90
29237;DHT22;16266;50.866;4.398;2022-08-19T06:50:47;24.40;99.90
29237;DHT22;16266;50.866;4.398;2022-08-19T06:53:15;24.20;99.90
29237;DHT22;16266;50.866;4.398;2022-08-19T06:55:40;24.10;99.90
29237;DHT22;16266;50.866;4.398;2022-08-19T06:58:06;24.10;99.90
29237;DHT22;16266;50.866;4.398;2022-08-19T07:00:32;23.90;99.90
29237;DHT22;16266;50.866;4.398;2022-08-19T07:02:59;24.00;99.90
29237;DHT22;16266;50.866;4.398;2022-08-19T07:05:25;23.90;99.90
29237;DHT22;16266;50.866;4.398;2022-08-19T07:07:51;23.50;99.90
29237;DHT22;16266;50.866;4.398;2022-08-19T07:10:17;23.30;99.90
29237;DHT22;16266;50.866;4.398;2022-08-19T07:12:44;23.40;99.90
29237;DHT22;16266;50.866;4.398;2022-08-19T07:15:10;23.80;99.90
29237;DHT22;16266;50.866;4.398;2022-08-19T07:17:36;23.80;99.90
29237;DHT22;16266;50.866;4.398;2022-08-19T07:20:06;23.90;99.90
29237;DHT22;16266;50.866;4.398;2022-08-19T07:22:33;24.10;99.90
29237;DHT22;16266;50.866;4.398;2022-08-19T07:25:00;24.20;99.90
29237;DHT22;16266;50.866;4.398;2022-08-19T07:27:25;25.00;99.90
29237;DHT22;16266;50.866;4.398;2022-08-19T07:29:53;25.70;99.90
29237;DHT22;16266;50.866;4.398;2022-08-19T07:32:19;26.20;99.90
29237;DHT22;16266;50.866;4.398;2022-08-19T07:34:45;26.10;99.90
29237;DHT22;16266;50.866;4.398;2022-08-19T07:37:10;25.70;99.90
29237;DHT22;16266;50.866;4.398;2022-08-19T07:39:37;25.50;99.90
29237;DHT22;16266;50.866;4.398;2022-08-19T07:42:08;25.50;99.90
29237;DHT22;16266;50.866;4.398;2022-08-19T07:44:35;25.90;99.90
29237;DHT22;16266;50.866;4.398;2022-08-19T07:47:02;26.30;99.90
29237;DHT22;16266;50.866;4.398;2022-08-19T07:49:28;27.10;99.90
29237;DHT22;16266;50.866;4.398;2022-08-19T07:51:58;27.70;99.90
29237;DHT22;16266;50.866;4.398;2022-08-19T07:54:28;28.20;99.90
29237;DHT22;16266;50.866;4.398;2022-08-19T07:56:54;28.80;99.90
29237;DHT22;16266;50.866;4.398;2022-08-19T07:59:21;29.50;99.90
29237;DHT22;16266;50.866;4.398;2022-08-19T08:01:47;30.60;99.90
29237;DHT22;16266;50.866;4.398;2022-08-19T08:04:13;31.20;99.90
29237;DHT22;16266;50.866;4.398;2022-08-19T08:06:58;30.30;99.90
29237;DHT22;16266;50.866;4.398;2022-08-19T08:09:43;29.60;99.90
29237;DHT22;16266;50.866;4.398;2022-08-19T08:14:47;28.30;99.90
29237;DHT22;16266;50.866;4.398;2022-08-19T08:17:15;28.40;99.90
29237;DHT22;16266;50.866;4.398;2022-08-19T08:19:41;29.10;99.90
29237;DHT22;16266;50.866;4.398;2022-08-19T08:22:08;30.60;97.40
29237;DHT22;16266;50.866;4.398;2022-08-19T08:24:54;31.90;89.90
29237;DHT22;16266;50.866;4.398;2022-08-19T08:27:23;31.70;84.00
29237;DHT22;16266;50.866;4.398;2022-08-19T08:29:49;31.20;84.70
29237;DHT22;16266;50.866;4.398;2022-08-19T08:32:15;30.80;87.60
29237;DHT22;16266;50.866;4.398;2022-08-19T08:34:41;30.20;90.90
29237;DHT22;16266;50.866;4.398;2022-08-19T08:37:06;29.80;93.60
29237;DHT22;16266;50.866;4.398;2022-08-19T08:39:32;29.40;95.80
29237;DHT22;16266;50.866;4.398;2022-08-19T08:47:17;28.80;99.90
29237;DHT22;16266;50.866;4.398;2022-08-19T08:50:00;28.60;99.90
29237;DHT22;16266;50.866;4.398;2022-08-19T08:52:28;28.50;99.90
29237;DHT22;16266;50.866;4.398;2022-08-19T08:54:59;28.20;99.90
29237;DHT22;16266;50.866;4.398;2022-08-19T08:59:51;27.90;99.90
29237;DHT22;16266;50.866;4.398;2022-08-19T09:02:19;27.90;99.90
29237;DHT22;16266;50.866;4.398;2022-08-19T09:04:45;27.80;99.90
29237;DHT22;16266;50.866;4.398;2022-08-19T09:09:49;27.60;99.90
29237;DHT22;16266;50.866;4.398;2022-08-19T09:15:15;27.50;99.90
29237;DHT22;16266;50.866;4.398;2022-08-19T09:17:41;27.60;99.90
29237;DHT22;16266;50.866;4.398;2022-08-19T09:22:40;27.50;99.90
29237;DHT22;16266;50.866;4.398;2022-08-19T09:25:10;27.20;99.90
29237;DHT22;16266;50.866;4.398;2022-08-19T09:27:38;27.10;99.90
29237;DHT22;16266;50.866;4.398;2022-08-19T09:30:05;27.40;99.90
29237;DHT22;16266;50.866;4.398;2022-08-19T09:32:34;28.00;99.90
29237;DHT22;16266;50.866;4.398;2022-08-19T09:34:59;28.00;99.90
29237;DHT22;16266;50.866;4.398;2022-08-19T09:37:26;28.00;99.90
29237;DHT22;16266;50.866;4.398;2022-08-19T09:39:52;27.90;99.90
29237;DHT22;16266;50.866;4.398;2022-08-19T09:42:18;27.80;99.90
29237;DHT22;16266;50.866;4.398;2022-08-19T09:44:44;27.50;99.90
29237;DHT22;16266;50.866;4.398;2022-08-19T09:47:11;27.00;99.90
29237;DHT22;16266;50.866;4.398;2022-08-19T09:49:38;26.70;99.90
29237;DHT22;16266;50.866;4.398;2022-08-19T09:52:05;26.80;99.90
29237;DHT22;16266;50.866;4.398;2022-08-19T09:54:31;26.90;99.90
29237;DHT22;16266;50.866;4.398;2022-08-19T09:56:58;27.30;99.90
29237;DHT22;16266;50.866;4.398;2022-08-19T09:59:26;27.40;99.90
29237;DHT22;16266;50.866;4.398;2022-08-19T10:01:52;27.40;99.90
29237;DHT22;16266;50.866;4.398;2022-08-19T10:04:18;27.50;99.90
29237;DHT22;16266;50.866;4.398;2022-08-19T10:06:45;27.50;99.90
29237;DHT22;16266;50.866;4.398;2022-08-19T10:09:14;27.70;99.90
29237;DHT22;16266;50.866;4.398;2022-08-19T10:11:42;27.70;99.90
29237;DHT22;16266;50.866;4.398;2022-08-19T10:14:08;27.60;99.90
29237;DHT22;16266;50.866;4.398;2022-08-19T10:16:36;27.70;99.90
29237;DHT22;16266;50.866;4.398;2022-08-19T10:19:02;27.80;99.90
29237;DHT22;16266;50.866;4.398;2022-08-19T10:21:31;27.70;99.90
29237;DHT22;16266;50.866;4.398;2022-08-19T10:24:00;27.70;99.90
29237;DHT22;16266;50.866;4.398;2022-08-19T10:26:29;27.80;99.90
29237;DHT22;16266;50.866;4.398;2022-08-19T10:28:57;27.50;99.90
29237;DHT22;16266;50.866;4.398;2022-08-19T10:31:30;27.70;99.90
29237;DHT22;16266;50.866;4.398;2022-08-19T10:33:57;28.00;99.90
29237;DHT22;16266;50.866;4.398;2022-08-19T10:36:33;28.40;99.90
29237;DHT22;16266;50.866;4.398;2022-08-19T10:39:03;28.30;99.90
29237;DHT22;16266;50.866;4.398;2022-08-19T10:41:33;28.30;99.90
29237;DHT22;16266;50.866;4.398;2022-08-19T10:44:05;28.50;99.90
29237;DHT22;16266;50.866;4.398;2022-08-19T10:46:34;28.10;99.90
29237;DHT22;16266;50.866;4.398;2022-08-19T10:49:01;27.80;99.90
29237;DHT22;16266;50.866;4.398;2022-08-19T10:51:29;27.60;99.90
29237;DHT22;16266;50.866;4.398;2022-08-19T10:54:13;27.70;99.90
29237;DHT22;16266;50.866;4.398;2022-08-19T10:56:39;27.90;99.90
29237;DHT22;16266;50.866;4.398;2022-08-19T11:01:44;27.90;99.90
29237;DHT22;16266;50.866;4.398;2022-08-19T11:04:11;28.00;99.90
29237;DHT22;16266;50.866;4.398;2022-08-19T11:06:39;27.80;99.90
29237;DHT22;16266;50.866;4.398;2022-08-19T11:09:06;27.40;99.90
29237;DHT22;16266;50.866;4.398;2022-08-19T11:11:32;27.10;99.90
29237;DHT22;16266;50.866;4.398;2022-08-19T11:13:58;27.00;99.90
29237;DHT22;16266;50.866;4.398;2022-08-19T11:16:25;27.10;99.90
29237;DHT22;16266;50.866;4.398;2022-08-19T11:18:54;27.40;99.90
29237;DHT22;16266;50.866;4.398;2022-08-19T11:21:32;27.50;99.90
29237;DHT22;16266;50.866;4.398;2022-08-19T11:24:02;27.90;99.90
29237;DHT22;16266;50.866;4.398;2022-08-19T11:26:29;28.40;99.90
29237;DHT22;16266;50.866;4.398;2022-08-19T11:28:56;29.00;99.90
29237;DHT22;16266;50.866;4.398;2022-08-19T11:31:28;29.20;99.90
29237;DHT22;16266;50.866;4.398;2022-08-19T11:33:57;29.70;99.90
29237;DHT22;16266;50.866;4.398;2022-08-19T11:36:22;30.00;99.70
29237;DHT22;16266;50.866;4.398;2022-08-19T11:38:49;30.00;99.50
29237;DHT22;16266;50.866;4.398;2022-08-19T11:41:18;29.70;99.90
29237;DHT22;16266;50.866;4.398;2022-08-19T11:43:44;29.10;99.90
29237;DHT22;16266;50.866;4.398;2022-08-19T11:46:12;28.50;99.90
29237;DHT22;16266;50.866;4.398;2022-08-19T11:48:38;27.90;99.90
29237;DHT22;16266;50.866;4.398;2022-08-19T11:51:10;27.70;99.90
29237;DHT22;16266;50.866;4.398;2022-08-19T11:53:38;27.80;99.90
29237;DHT22;16266;50.866;4.398;2022-08-19T11:56:08;28.10;99.90
29237;DHT22;16266;50.866;4.398;2022-08-19T11:58:34;28.50;99.90
29237;DHT22;16266;50.866;4.398;2022-08-19T12:00:59;28.90;99.90
29237;DHT22;16266;50.866;4.398;2022-08-19T12:03:25;29.50;99.90
29237;DHT22;16266;50.866;4.398;2022-08-19T12:05:51;30.40;98.90
29237;DHT22;16266;50.866;4.398;2022-08-19T12:08:18;31.10;95.20
29237;DHT22;16266;50.866;4.398;2022-08-19T12:10:45;32.80;88.80
29237;DHT22;16266;50.866;4.398;2022-08-19T12:13:12;33.90;74.30
29237;DHT22;16266;50.866;4.398;2022-08-19T12:15:44;34.30;67.70
29237;DHT22;16266;50.866;4.398;2022-08-19T12:18:11;34.30;61.10
29237;DHT22;16266;50.866;4.398;2022-08-19T12:20:40;33.60;61.60
29237;DHT22;16266;50.866;4.398;2022-08-19T12:23:07;33.60;62.60
29237;DHT22;16266;50.866;4.398;2022-08-19T12:25:33;34.50;59.40
29237;DHT22;16266;50.866;4.398;2022-08-19T12:28:00;34.60;56.10
29237;DHT22;16266;50.866;4.398;2022-08-19T12:30:26;34.30;55.60
29237;DHT22;16266;50.866;4.398;2022-08-19T12:32:52;34.40;56.30
29237;DHT22;16266;50.866;4.398;2022-08-19T12:35:18;34.00;56.60
29237;DHT22;16266;50.866;4.398;2022-08-19T12:37:46;33.50;58.90
29237;DHT22;16266;50.866;4.398;2022-08-19T12:40:13;33.30;57.30
29237;DHT22;16266;50.866;4.398;2022-08-19T12:42:40;32.60;59.70
29237;DHT22;16266;50.866;4.398;2022-08-19T12:45:13;32.50;62.00
29237;DHT22;16266;50.866;4.398;2022-08-19T12:47:40;32.10;62.60
29237;DHT22;16266;50.866;4.398;2022-08-19T12:50:08;31.80;64.80
29237;DHT22;16266;50.866;4.398;2022-08-19T12:52:35;31.80;66.30
29237;DHT22;16266;50.866;4.398;2022-08-19T12:55:07;31.80;67.60
29237;DHT22;16266;50.866;4.398;2022-08-19T12:57:34;32.20;66.60
29237;DHT22;16266;50.866;4.398;2022-08-19T13:00:05;33.10;64.20
29237;DHT22;16266;50.866;4.398;2022-08-19T13:02:33;34.10;58.80
29237;DHT22;16266;50.866;4.398;2022-08-19T13:05:00;33.50;58.60
29237;DHT22;16266;50.866;4.398;2022-08-19T13:07:26;33.40;57.90
29237;DHT22;16266;50.866;4.398;2022-08-19T13:09:52;33.20;58.00
29237;DHT22;16266;50.866;4.398;2022-08-19T13:12:17;33.60;57.40
29237;DHT22;16266;50.866;4.398;2022-08-19T13:14:43;35.10;52.80
29237;DHT22;16266;50.866;4.398;2022-08-19T13:17:16;36.00;48.60
29237;DHT22;16266;50.866;4.398;2022-08-19T13:19:41;36.10;47.40
29237;DHT22;16266;50.866;4.398;2022-08-19T13:22:07;35.50;46.70
29237;DHT22;16266;50.866;4.398;2022-08-19T13:24:33;35.00;46.90
29237;DHT22;16266;50.866;4.398;2022-08-19T13:26:59;35.20;47.20
29237;DHT22;16266;50.866;4.398;2022-08-19T13:29:25;35.40;47.40
29237;DHT22;16266;50.866;4.398;2022-08-19T13:32:09;34.80;46.70
29237;DHT22;16266;50.866;4.398;2022-08-19T13:34:53;34.40;48.50
29237;DHT22;16266;50.866;4.398;2022-08-19T13:37:19;33.80;48.80
29237;DHT22;16266;50.866;4.398;2022-08-19T13:40:05;33.10;51.10
29237;DHT22;16266;50.866;4.398;2022-08-19T13:42:32;33.20;51.90
29237;DHT22;16266;50.866;4.398;2022-08-19T13:44:58;33.60;51.20
29237;DHT22;16266;50.866;4.398;2022-08-19T13:47:24;34.30;50.50
29237;DHT22;16266;50.866;4.398;2022-08-19T13:49:49;34.70;49.40
29237;DHT22;16266;50.866;4.398;2022-08-19T13:52:15;34.20;48.40
29237;DHT22;16266;50.866;4.398;2022-08-19T13:54:41;33.10;50.20
29237;DHT22;16266;50.866;4.398;2022-08-19T13:57:07;32.40;52.90
29237;DHT22;16266;50.866;4.398;2022-08-19T13:59:33;32.10;54.40
29237;DHT22;16266;50.866;4.398;2022-08-19T14:01:59;32.00;56.00
29237;DHT22;16266;50.866;4.398;2022-08-19T14:04:25;31.80;57.00
29237;DHT22;16266;50.866;4.398;2022-08-19T14:06:50;31.80;58.10
29237;DHT22;16266;50.866;4.398;2022-08-19T14:09:16;31.40;59.70
29237;DHT22;16266;50.866;4.398;2022-08-19T14:11:42;31.10;62.00
29237;DHT22;16266;50.866;4.398;2022-08-19T14:14:07;30.50;68.00
29237;DHT22;16266;50.866;4.398;2022-08-19T14:16:33;29.70;93.40
29237;DHT22;16266;50.866;4.398;2022-08-19T14:18:59;28.80;96.90
29237;DHT22;16266;50.866;4.398;2022-08-19T14:21:25;28.10;99.90
29237;DHT22;16266;50.866;4.398;2022-08-19T14:23:51;27.60;99.90
29237;DHT22;16266;50.866;4.398;2022-08-19T14:26:18;27.20;99.90
29237;DHT22;16266;50.866;4.398;2022-08-19T14:28:45;26.70;99.90
29237;DHT22;16266;50.866;4.398;2022-08-19T14:31:12;26.20;99.90
29237;DHT22;16266;50.866;4.398;2022-08-19T14:33:38;26.00;99.90
29237;DHT22;16266;50.866;4.398;2022-08-19T14:36:04;26.30;99.90
29237;DHT22;16266;50.866;4.398;2022-08-19T14:38:30;26.90;99.90
29237;DHT22;16266;50.866;4.398;2022-08-19T14:43:37;26.90;99.90
29237;DHT22;16266;50.866;4.398;2022-08-19T14:46:03;26.60;99.90
29237;DHT22;16266;50.866;4.398;2022-08-19T14:48:29;25.90;99.90
29237;DHT22;16266;50.866;4.398;2022-08-19T14:50:55;25.10;99.90
29237;DHT22;16266;50.866;4.398;2022-08-19T14:53:20;24.90;99.90
29237;DHT22;16266;50.866;4.398;2022-08-19T14:55:47;24.70;99.90
29237;DHT22;16266;50.866;4.398;2022-08-19T14:58:13;24.50;99.90
29237;DHT22;16266;50.866;4.398;2022-08-19T15:00:40;24.40;99.90
29237;DHT22;16266;50.866;4.398;2022-08-19T15:03:05;24.70;99.90
29237;DHT22;16266;50.866;4.398;2022-08-19T15:05:31;24.80;99.90
29237;DHT22;16266;50.866;4.398;2022-08-19T15:07:57;25.00;99.90
29237;DHT22;16266;50.866;4.398;2022-08-19T15:10:23;24.80;99.90
29237;DHT22;16266;50.866;4.398;2022-08-19T15:12:50;24.60;99.90
29237;DHT22;16266;50.866;4.398;2022-08-19T15:15:16;24.50;99.90
29237;DHT22;16266;50.866;4.398;2022-08-19T15:17:43;24.60;99.90
29237;DHT22;16266;50.866;4.398;2022-08-19T15:20:11;24.50;99.90
29237;DHT22;16266;50.866;4.398;2022-08-19T15:22:37;24.50;99.90
29237;DHT22;16266;50.866;4.398;2022-08-19T15:25:05;24.60;99.90
29237;DHT22;16266;50.866;4.398;2022-08-19T15:27:31;24.70;99.90
29237;DHT22;16266;50.866;4.398;2022-08-19T15:29:56;24.80;99.90
29237;DHT22;16266;50.866;4.398;2022-08-19T15:32:22;25.20;99.90
29237;DHT22;16266;50.866;4.398;2022-08-19T15:34:48;25.50;99.90
29237;DHT22;16266;50.866;4.398;2022-08-19T15:37:14;25.60;99.90
29237;DHT22;16266;50.866;4.398;2022-08-19T15:39:40;25.50;99.90
29237;DHT22;16266;50.866;4.398;2022-08-19T15:42:06;25.70;99.90
29237;DHT22;16266;50.866;4.398;2022-08-19T15:44:32;25.80;99.90
29237;DHT22;16266;50.866;4.398;2022-08-19T15:46:58;25.80;99.90
29237;DHT22;16266;50.866;4.398;2022-08-19T15:49:24;25.80;99.90
29237;DHT22;16266;50.866;4.398;2022-08-19T15:51:50;25.80;99.90
29237;DHT22;16266;50.866;4.398;2022-08-19T15:54:22;25.80;99.90
29237;DHT22;16266;50.866;4.398;2022-08-19T15:56:48;25.70;99.90
29237;DHT22;16266;50.866;4.398;2022-08-19T15:59:34;25.60;99.90
29237;DHT22;16266;50.866;4.398;2022-08-19T16:02:20;25.50;99.90
29237;DHT22;16266;50.866;4.398;2022-08-19T16:05:07;25.20;99.90
29237;DHT22;16266;50.866;4.398;2022-08-19T16:07:52;24.60;99.90